createdAt,value
2016-10-25T00:00:13.580Z,0
2016-10-25T00:01:26.685Z,0
2016-10-25T00:02:40.250Z,0
2016-10-25T00:03:53.911Z,0
2016-10-25T00:05:07.436Z,0
2016-10-25T00:06:21.012Z,0
2016-10-25T00:07:34.340Z,0
2016-10-25T00:08:47.902Z,0
2016-10-25T00:10:01.127Z,0
2016-10-25T00:11:14.172Z,0
2016-10-25T00:12:27.249Z,0
2016-10-25T00:13:40.813Z,0
2016-10-25T00:14:53.571Z,0
2016-10-25T00:16:07.148Z,0
2016-10-25T00:17:20.725Z,0
2016-10-25T00:18:33.780Z,0
2016-10-25T00:19:47.290Z,0
2016-10-25T00:21:00.834Z,0
2016-10-25T00:22:13.910Z,0
2016-10-25T00:23:26.911Z,0
2016-10-25T00:24:40.430Z,0
2016-10-25T00:25:53.962Z,0
2016-10-25T00:27:07.517Z,0
2016-10-25T00:28:20.309Z,0
2016-10-25T00:29:33.833Z,0
2016-10-25T00:30:47.339Z,0
2016-10-25T00:31:59.811Z,0
2016-10-25T00:33:13.407Z,0
2016-10-25T00:34:26.738Z,0
2016-10-25T00:35:39.808Z,0
2016-10-25T00:36:53.445Z,0
2016-10-25T00:38:07.283Z,0
2016-10-25T00:39:20.811Z,0
2016-10-25T00:40:34.408Z,0
2016-10-25T00:41:47.950Z,0
2016-10-25T00:43:01.545Z,0
2016-10-25T00:44:15.069Z,0
2016-10-25T00:45:28.607Z,0
2016-10-25T00:46:42.176Z,0
2016-10-25T00:47:56.032Z,0
2016-10-25T00:49:09.562Z,0
2016-10-25T00:50:22.955Z,0
2016-10-25T00:51:35.992Z,0
2016-10-25T00:52:50.179Z,0
2016-10-25T00:54:03.704Z,0
2016-10-25T00:55:17.304Z,0
2016-10-25T00:56:30.909Z,0
2016-10-25T00:57:44.471Z,0
2016-10-25T00:58:57.991Z,0
2016-10-25T01:00:11.578Z,0
2016-10-25T01:01:24.696Z,0
2016-10-25T01:02:38.248Z,0
2016-10-25T01:03:51.789Z,0
2016-10-25T01:05:05.411Z,0
2016-10-25T01:06:18.983Z,0
2016-10-25T01:07:32.563Z,0
2016-10-25T01:08:46.048Z,0
2016-10-25T01:09:59.645Z,0
2016-10-25T01:11:13.231Z,0
2016-10-25T01:12:26.842Z,0
2016-10-25T01:13:40.519Z,0
2016-10-25T01:14:54.030Z,0
2016-10-25T01:16:07.536Z,0
2016-10-25T01:17:21.072Z,0
2016-10-25T01:18:34.646Z,0
2016-10-25T01:19:48.246Z,0
2016-10-25T01:21:02.287Z,0
2016-10-25T01:22:15.542Z,0
2016-10-25T01:23:29.461Z,0
2016-10-25T01:24:42.437Z,0
2016-10-25T01:25:56.267Z,0
2016-10-25T01:27:09.305Z,0
2016-10-25T01:28:23.146Z,0
2016-10-25T01:29:36.161Z,0
2016-10-25T01:30:50.090Z,0
2016-10-25T01:32:03.345Z,0
2016-10-25T01:33:16.857Z,0
2016-10-25T01:34:29.839Z,0
2016-10-25T01:35:42.922Z,0
2016-10-25T01:36:56.358Z,0
2016-10-25T01:38:09.430Z,0
2016-10-25T01:39:23.156Z,0
2016-10-25T01:40:36.715Z,0
2016-10-25T01:41:50.317Z,0
2016-10-25T01:43:03.363Z,0
2016-10-25T01:44:16.646Z,0
2016-10-25T01:45:30.151Z,0
2016-10-25T01:46:43.786Z,0
2016-10-25T01:47:57.378Z,0
2016-10-25T01:49:10.446Z,0
2016-10-25T01:50:24.061Z,0
2016-10-25T01:51:37.406Z,0
2016-10-25T01:52:50.954Z,0
2016-10-25T01:54:04.031Z,0
2016-10-25T01:55:17.355Z,0
2016-10-25T01:56:30.345Z,0
2016-10-25T01:57:43.362Z,0
2016-10-25T01:58:56.987Z,0
2016-10-25T02:00:10.648Z,0
2016-10-25T02:01:23.678Z,0
2016-10-25T02:02:36.150Z,0
2016-10-25T02:03:49.708Z,0
2016-10-25T02:05:03.331Z,0
2016-10-25T02:06:16.345Z,0
2016-10-25T02:07:29.361Z,0
2016-10-25T02:08:42.925Z,0
2016-10-25T02:09:56.476Z,0
2016-10-25T02:11:09.559Z,0
2016-10-25T02:12:23.372Z,0
2016-10-25T02:13:35.793Z,0
2016-10-25T02:14:49.312Z,0
2016-10-25T02:16:02.322Z,0
2016-10-25T02:17:15.353Z,0
2016-10-25T02:18:27.928Z,0
2016-10-25T02:19:41.501Z,0
2016-10-25T02:20:55.048Z,0
2016-10-25T02:22:08.562Z,0
2016-10-25T02:23:22.115Z,0
2016-10-25T02:24:35.694Z,0
2016-10-25T02:25:49.171Z,0
2016-10-25T02:27:02.921Z,0
2016-10-25T02:28:15.932Z,0
2016-10-25T02:29:29.140Z,0
2016-10-25T02:30:42.164Z,0
2016-10-25T02:31:55.659Z,0
2016-10-25T02:33:09.173Z,0
2016-10-25T02:34:22.715Z,0
2016-10-25T02:35:36.266Z,0
2016-10-25T02:36:50.342Z,0
2016-10-25T02:38:02.314Z,0
2016-10-25T02:39:15.878Z,0
2016-10-25T02:40:28.894Z,0
2016-10-25T02:41:42.447Z,0
2016-10-25T02:42:56.580Z,0
2016-10-25T02:44:10.126Z,0
2016-10-25T02:45:23.619Z,0
2016-10-25T02:46:37.181Z,0
2016-10-25T02:47:50.349Z,0
2016-10-25T02:49:03.937Z,0
2016-10-25T02:50:17.501Z,0
2016-10-25T02:51:31.031Z,0
2016-10-25T02:52:44.700Z,0
2016-10-25T02:53:58.269Z,0
2016-10-25T02:55:11.811Z,0
2016-10-25T02:56:25.320Z,0
2016-10-25T02:57:38.890Z,0
2016-10-25T02:58:52.419Z,0
2016-10-25T03:00:05.382Z,0
2016-10-25T03:01:18.853Z,0
2016-10-25T03:02:32.705Z,0
2016-10-25T03:03:46.241Z,0
2016-10-25T03:04:59.734Z,0
2016-10-25T03:06:13.054Z,0
2016-10-25T03:07:26.598Z,0
2016-10-25T03:08:40.138Z,0
2016-10-25T03:09:53.789Z,0
2016-10-25T03:11:07.381Z,0
2016-10-25T03:12:20.902Z,0
2016-10-25T03:13:34.423Z,0
2016-10-25T03:14:48.019Z,0
2016-10-25T03:16:01.512Z,0
2016-10-25T03:17:15.046Z,0
2016-10-25T03:18:28.269Z,0
2016-10-25T03:19:41.833Z,0
2016-10-25T03:20:55.359Z,0
2016-10-25T03:22:08.913Z,0
2016-10-25T03:23:22.425Z,0
2016-10-25T03:24:35.961Z,0
2016-10-25T03:25:49.529Z,0
2016-10-25T03:27:03.034Z,0
2016-10-25T03:28:16.660Z,0
2016-10-25T03:29:30.241Z,0
2016-10-25T03:30:43.780Z,0
2016-10-25T03:31:56.831Z,0
2016-10-25T03:33:10.431Z,0
2016-10-25T03:34:23.951Z,0
2016-10-25T03:35:36.954Z,0
2016-10-25T03:36:50.470Z,0
2016-10-25T03:38:04.042Z,0
2016-10-25T03:39:17.082Z,0
2016-10-25T03:40:30.110Z,0
2016-10-25T03:41:43.042Z,0
2016-10-25T03:42:56.649Z,0
2016-10-25T03:44:10.195Z,0
2016-10-25T03:45:22.928Z,0
2016-10-25T03:46:35.924Z,0
2016-10-25T03:47:48.951Z,0
2016-10-25T03:49:02.552Z,0
2016-10-25T03:50:15.554Z,0
2016-10-25T03:51:29.121Z,0
2016-10-25T03:52:42.666Z,0
2016-10-25T03:53:56.627Z,0
2016-10-25T03:55:09.184Z,0
2016-10-25T03:56:22.809Z,0
2016-10-25T03:57:36.385Z,0
2016-10-25T03:58:50.357Z,0
2016-10-25T04:00:03.990Z,0
2016-10-25T04:01:17.568Z,0
2016-10-25T04:02:31.200Z,0
2016-10-25T04:03:44.747Z,0
2016-10-25T04:04:58.323Z,0
2016-10-25T04:06:12.010Z,0
2016-10-25T04:07:25.556Z,0
2016-10-25T04:08:39.152Z,0
2016-10-25T04:09:52.080Z,0
2016-10-25T04:11:05.442Z,0
2016-10-25T04:12:18.945Z,0
2016-10-25T04:13:32.809Z,0
2016-10-25T04:14:46.354Z,0
2016-10-25T04:15:59.962Z,0
2016-10-25T04:17:13.534Z,0
2016-10-25T04:18:26.815Z,0
2016-10-25T04:19:39.805Z,0
2016-10-25T04:20:53.616Z,0
2016-10-25T04:22:07.233Z,0
2016-10-25T04:23:20.786Z,0
2016-10-25T04:24:34.304Z,0
2016-10-25T04:25:47.805Z,0
2016-10-25T04:27:01.437Z,0
2016-10-25T04:28:15.075Z,0
2016-10-25T04:29:28.657Z,0
2016-10-25T04:30:42.107Z,0
2016-10-25T04:31:55.649Z,0
2016-10-25T04:33:08.693Z,0
2016-10-25T04:34:22.251Z,0
2016-10-25T04:35:35.809Z,0
2016-10-25T04:36:48.904Z,0
2016-10-25T04:38:03.058Z,0
2016-10-25T04:39:16.639Z,0
2016-10-25T04:40:30.198Z,0
2016-10-25T04:41:43.781Z,0
2016-10-25T04:42:57.346Z,0
2016-10-25T04:44:10.974Z,0
2016-10-25T04:45:24.536Z,0
2016-10-25T04:46:38.056Z,0
2016-10-25T04:47:51.566Z,0
2016-10-25T04:49:05.192Z,0
2016-10-25T04:50:18.136Z,0
2016-10-25T04:51:31.680Z,0
2016-10-25T04:52:45.165Z,0
2016-10-25T04:53:58.700Z,0
2016-10-25T04:55:12.270Z,0
2016-10-25T04:56:25.783Z,0
2016-10-25T04:57:39.315Z,0
2016-10-25T04:58:52.884Z,0
2016-10-25T05:00:05.412Z,0
2016-10-25T05:01:18.409Z,0
2016-10-25T05:02:31.992Z,0
2016-10-25T05:03:45.568Z,0
2016-10-25T05:04:59.150Z,0
2016-10-25T05:06:12.662Z,0
2016-10-25T05:07:26.705Z,0
2016-10-25T05:08:40.256Z,0
2016-10-25T05:09:53.709Z,0
2016-10-25T05:11:07.307Z,0
2016-10-25T05:12:20.900Z,0
2016-10-25T05:13:34.516Z,0
2016-10-25T05:14:47.350Z,0
2016-10-25T05:16:00.930Z,0
2016-10-25T05:17:14.542Z,0
2016-10-25T05:18:28.053Z,0
2016-10-25T05:19:41.002Z,0
2016-10-25T05:20:54.625Z,0
2016-10-25T05:22:08.159Z,0
2016-10-25T05:23:21.231Z,0
2016-10-25T05:24:34.808Z,0
2016-10-25T05:25:47.378Z,0
2016-10-25T05:27:00.929Z,0
2016-10-25T05:28:14.547Z,0
2016-10-25T05:29:28.141Z,0
2016-10-25T05:30:41.752Z,0
2016-10-25T05:31:55.335Z,0
2016-10-25T05:33:08.940Z,0
2016-10-25T05:34:22.408Z,0
2016-10-25T05:35:36.095Z,0
2016-10-25T05:36:49.667Z,0
2016-10-25T05:38:03.142Z,0
2016-10-25T05:39:16.198Z,0
2016-10-25T05:40:30.310Z,0
2016-10-25T05:41:43.873Z,0
2016-10-25T05:42:57.344Z,0
2016-10-25T05:44:10.847Z,0
2016-10-25T05:45:24.376Z,0
2016-10-25T05:46:37.911Z,0
2016-10-25T05:47:51.525Z,0
2016-10-25T05:49:05.125Z,0
2016-10-25T05:50:17.597Z,0
2016-10-25T05:51:31.135Z,0
2016-10-25T05:52:43.675Z,0
2016-10-25T05:53:57.197Z,0
2016-10-25T05:55:10.798Z,0
2016-10-25T05:56:24.364Z,0
2016-10-25T05:57:37.983Z,0
2016-10-25T05:58:51.545Z,0
2016-10-25T06:00:05.131Z,0
2016-10-25T06:01:18.735Z,0
2016-10-25T06:02:32.261Z,0
2016-10-25T06:03:45.869Z,0
2016-10-25T06:04:59.854Z,0
2016-10-25T06:06:12.351Z,0
2016-10-25T06:07:25.365Z,0
2016-10-25T06:08:38.946Z,0
2016-10-25T06:09:51.772Z,0
2016-10-25T06:11:05.283Z,0
2016-10-25T06:12:18.850Z,0
2016-10-25T06:13:32.969Z,0
2016-10-25T06:14:45.967Z,0
2016-10-25T06:15:59.860Z,0
2016-10-25T06:17:13.060Z,0
2016-10-25T06:18:26.866Z,0
2016-10-25T06:19:40.414Z,0
2016-10-25T06:20:53.662Z,0
2016-10-25T06:22:05.336Z,0
2016-10-25T06:23:18.946Z,0
2016-10-25T06:24:33.035Z,0
2016-10-25T06:25:46.610Z,0
2016-10-25T06:26:59.705Z,0
2016-10-25T06:28:13.261Z,0
2016-10-25T06:29:26.709Z,0
2016-10-25T06:30:40.248Z,0
2016-10-25T06:31:53.670Z,0
2016-10-25T06:33:06.801Z,0
2016-10-25T06:34:19.561Z,0
2016-10-25T06:35:32.580Z,0
2016-10-25T06:36:46.109Z,0
2016-10-25T06:37:58.706Z,0
2016-10-25T06:39:12.061Z,0
2016-10-25T06:40:25.580Z,0
2016-10-25T06:41:39.109Z,0
2016-10-25T06:42:52.110Z,0
2016-10-25T06:44:05.543Z,0
2016-10-25T06:45:19.093Z,0
2016-10-25T06:46:32.437Z,0
2016-10-25T06:47:45.958Z,0
2016-10-25T06:48:59.915Z,0
2016-10-25T06:50:12.968Z,0
2016-10-25T06:51:26.808Z,0
2016-10-25T06:52:39.860Z,0
2016-10-25T06:53:53.675Z,0
2016-10-25T06:55:06.698Z,0
2016-10-25T06:56:19.748Z,0
2016-10-25T06:57:33.285Z,0
2016-10-25T06:58:46.807Z,0
2016-10-25T07:00:00.325Z,0
2016-10-25T07:01:14.046Z,0
2016-10-25T07:02:27.626Z,0
2016-10-25T07:03:40.144Z,0
2016-10-25T07:04:53.723Z,0
2016-10-25T07:06:06.752Z,0
2016-10-25T07:07:19.822Z,0
2016-10-25T07:08:32.319Z,0
2016-10-25T07:09:44.806Z,0
2016-10-25T07:10:58.355Z,0
2016-10-25T07:12:11.959Z,0
2016-10-25T07:13:25.005Z,0
2016-10-25T07:14:38.619Z,0
2016-10-25T07:15:51.722Z,0
2016-10-25T07:17:05.317Z,0
2016-10-25T07:18:18.647Z,0
2016-10-25T07:19:31.105Z,0
2016-10-25T07:20:44.672Z,0
2016-10-25T07:21:58.227Z,0
2016-10-25T07:23:11.805Z,0
2016-10-25T07:24:25.368Z,0
2016-10-25T07:25:38.368Z,0
2016-10-25T07:26:51.356Z,0
2016-10-25T07:28:04.306Z,0
2016-10-25T07:29:17.407Z,0
2016-10-25T07:31:38.856Z,0
2016-10-25T07:32:52.485Z,0
2016-10-25T07:34:06.142Z,0
2016-10-25T07:35:19.744Z,0
2016-10-25T07:36:32.833Z,0
2016-10-25T07:37:46.410Z,0
2016-10-25T07:38:59.912Z,0
2016-10-25T07:40:13.532Z,0
2016-10-25T07:41:27.163Z,0
2016-10-25T07:42:39.673Z,0
2016-10-25T07:43:52.682Z,0
2016-10-25T07:45:06.229Z,0
2016-10-25T07:46:19.788Z,0
2016-10-25T07:47:33.421Z,0
2016-10-25T07:48:46.472Z,0
2016-10-25T07:49:59.764Z,0
2016-10-25T07:51:13.364Z,0
2016-10-25T07:52:26.894Z,0
2016-10-25T07:53:40.489Z,0
2016-10-25T07:54:53.810Z,0
2016-10-25T07:56:07.402Z,0
2016-10-25T07:57:19.855Z,0
2016-10-25T07:58:33.359Z,0
2016-10-25T07:59:46.420Z,0
2016-10-25T08:01:00.008Z,0
2016-10-25T08:02:13.969Z,0
2016-10-25T08:03:27.059Z,0
2016-10-25T08:04:40.606Z,0
2016-10-25T08:05:54.221Z,0
2016-10-25T08:07:07.830Z,0
2016-10-25T08:08:21.333Z,0
2016-10-25T08:09:34.852Z,0
2016-10-25T08:10:48.620Z,0
2016-10-25T08:12:02.241Z,0
2016-10-25T08:13:15.278Z,0
2016-10-25T08:14:28.296Z,0
2016-10-25T08:15:41.875Z,0
2016-10-25T08:16:54.964Z,0
2016-10-25T08:18:08.489Z,0
2016-10-25T08:19:21.595Z,0
2016-10-25T08:20:35.091Z,0
2016-10-25T08:21:48.599Z,0
2016-10-25T08:23:02.207Z,0
2016-10-25T08:24:15.747Z,0
2016-10-25T08:25:29.321Z,0
2016-10-25T08:26:42.947Z,0
2016-10-25T08:27:56.256Z,0
2016-10-25T08:29:09.815Z,0
2016-10-25T08:30:22.866Z,0
2016-10-25T08:31:36.486Z,0
2016-10-25T08:32:48.499Z,0
2016-10-25T08:34:01.524Z,0
2016-10-25T08:35:14.911Z,0
2016-10-25T08:36:28.450Z,0
2016-10-25T08:37:41.536Z,0
2016-10-25T08:38:55.091Z,0
2016-10-25T08:40:08.675Z,0
2016-10-25T08:41:21.714Z,0
2016-10-25T08:42:34.688Z,0
2016-10-25T08:43:48.219Z,0
2016-10-25T08:45:01.749Z,0
2016-10-25T08:46:14.761Z,0
2016-10-25T08:47:28.360Z,0
2016-10-25T08:48:41.351Z,0
2016-10-25T08:49:54.374Z,0
2016-10-25T08:51:07.395Z,0
2016-10-25T08:52:20.554Z,0
2016-10-25T08:53:33.680Z,0
2016-10-25T08:54:47.282Z,0
2016-10-25T08:56:00.859Z,0
2016-10-25T08:57:13.944Z,0
2016-10-25T08:58:26.753Z,0
2016-10-25T08:59:40.322Z,0
2016-10-25T09:00:53.876Z,0
2016-10-25T09:02:06.886Z,0
2016-10-25T09:03:19.886Z,0
2016-10-25T09:04:32.570Z,0
2016-10-25T09:05:45.360Z,0
2016-10-25T09:06:58.917Z,0
2016-10-25T09:08:12.462Z,0
2016-10-25T09:09:25.461Z,0
2016-10-25T09:10:39.034Z,0
2016-10-25T09:11:52.079Z,0
2016-10-25T09:13:06.256Z,0
2016-10-25T09:14:19.911Z,0
2016-10-25T09:15:32.941Z,0
2016-10-25T09:16:46.530Z,5
2016-10-25T09:18:00.120Z,0
2016-10-25T09:19:13.169Z,0
2016-10-25T09:20:26.195Z,0
2016-10-25T09:21:39.804Z,0
2016-10-25T09:22:53.022Z,0
2016-10-25T09:24:07.203Z,5
2016-10-25T09:25:20.796Z,0
2016-10-25T09:26:33.878Z,0
2016-10-25T09:27:47.501Z,5
2016-10-25T09:29:01.102Z,5
2016-10-25T09:30:14.677Z,0
2016-10-25T09:31:27.223Z,5
2016-10-25T09:32:40.796Z,5
2016-10-25T09:33:54.477Z,5
2016-10-25T09:35:08.022Z,5
2016-10-25T09:36:21.603Z,5
2016-10-25T09:37:35.225Z,5
2016-10-25T09:38:48.777Z,5
2016-10-25T09:40:02.374Z,10
2016-10-25T09:41:15.917Z,5
2016-10-25T09:42:30.097Z,5
2016-10-25T09:43:43.669Z,5
2016-10-25T09:44:57.329Z,5
2016-10-25T09:46:10.869Z,5
2016-10-25T09:47:24.427Z,5
2016-10-25T09:48:37.527Z,10
2016-10-25T09:49:51.100Z,10
2016-10-25T09:51:04.710Z,15
2016-10-25T09:52:18.219Z,15
2016-10-25T09:53:31.766Z,15
2016-10-25T09:54:45.334Z,10
2016-10-25T09:55:58.952Z,15
2016-10-25T09:57:12.596Z,15
2016-10-25T09:58:26.180Z,15
2016-10-25T09:59:39.487Z,15
2016-10-25T10:00:52.563Z,10
2016-10-25T10:02:06.279Z,10
2016-10-25T10:03:19.332Z,10
2016-10-25T10:04:33.204Z,15
2016-10-25T10:05:46.172Z,15
2016-10-25T10:06:58.955Z,10
2016-10-25T10:08:12.487Z,10
2016-10-25T10:09:25.221Z,15
2016-10-25T10:10:38.339Z,15
2016-10-25T10:11:51.369Z,20
2016-10-25T10:13:05.029Z,15
2016-10-25T10:14:18.556Z,20
2016-10-25T10:15:31.054Z,20
2016-10-25T10:16:44.092Z,25
2016-10-25T10:17:57.091Z,25
2016-10-25T10:19:10.125Z,20
2016-10-25T10:20:23.927Z,20
2016-10-25T10:21:37.396Z,15
2016-10-25T10:22:50.845Z,15
2016-10-25T10:24:04.345Z,20
2016-10-25T10:25:17.896Z,25
2016-10-25T10:26:31.477Z,20
2016-10-25T10:27:45.094Z,15
2016-10-25T10:28:58.666Z,20
2016-10-25T10:30:11.754Z,20
2016-10-25T10:31:25.422Z,20
2016-10-25T10:32:38.939Z,20
2016-10-25T10:33:52.522Z,25
2016-10-25T10:35:05.200Z,30
2016-10-25T10:36:18.280Z,30
2016-10-25T10:37:31.803Z,25
2016-10-25T10:38:44.762Z,25
2016-10-25T10:39:57.839Z,25
2016-10-25T10:41:10.882Z,25
2016-10-25T10:42:24.487Z,30
2016-10-25T10:43:38.102Z,30
2016-10-25T10:44:51.754Z,30
2016-10-25T10:46:05.314Z,25
2016-10-25T10:47:18.350Z,20
2016-10-25T10:48:31.900Z,25
2016-10-25T10:49:44.994Z,25
2016-10-25T10:50:58.534Z,25
2016-10-25T10:52:11.612Z,25
2016-10-25T10:53:25.206Z,25
2016-10-25T10:54:38.775Z,25
2016-10-25T10:55:51.798Z,20
2016-10-25T10:57:03.823Z,20
2016-10-25T10:58:17.325Z,25
2016-10-25T10:59:30.828Z,25
2016-10-25T11:00:44.446Z,25
2016-10-25T11:01:57.530Z,25
2016-10-25T11:03:11.088Z,25
2016-10-25T11:04:23.942Z,30
2016-10-25T11:05:37.029Z,30
2016-10-25T11:06:50.859Z,35
2016-10-25T11:08:04.397Z,35
2016-10-25T11:09:16.968Z,40
2016-10-25T11:10:30.671Z,40
2016-10-25T11:11:44.223Z,45
2016-10-25T11:12:57.848Z,50
2016-10-25T11:14:11.442Z,45
2016-10-25T11:15:24.559Z,45
2016-10-25T11:16:37.564Z,45
2016-10-25T11:17:51.165Z,40
2016-10-25T11:19:04.760Z,40
2016-10-25T11:20:18.339Z,40
2016-10-25T11:21:31.348Z,40
2016-10-25T11:22:44.392Z,40
2016-10-25T11:23:57.374Z,40
2016-10-25T11:25:10.445Z,40
2016-10-25T11:26:23.948Z,40
2016-10-25T11:27:37.539Z,40
2016-10-25T11:28:51.089Z,45
2016-10-25T11:30:03.588Z,45
2016-10-25T11:31:16.680Z,45
2016-10-25T11:32:30.286Z,40
2016-10-25T11:33:43.926Z,35
2016-10-25T11:34:57.533Z,35
2016-10-25T11:36:11.104Z,40
2016-10-25T11:37:24.706Z,35
2016-10-25T11:38:37.773Z,35
2016-10-25T11:39:50.843Z,35
2016-10-25T11:41:03.931Z,35
2016-10-25T11:42:17.549Z,35
2016-10-25T11:43:30.657Z,35
2016-10-25T11:44:43.682Z,30
2016-10-25T11:45:57.219Z,25
2016-10-25T11:47:10.288Z,25
2016-10-25T11:48:23.990Z,20
2016-10-25T11:49:37.465Z,25
2016-10-25T11:50:51.125Z,25
2016-10-25T11:52:04.665Z,25
2016-10-25T11:53:17.686Z,25
2016-10-25T11:54:31.185Z,25
2016-10-25T11:55:44.768Z,25
2016-10-25T11:56:58.300Z,25
2016-10-25T11:58:10.812Z,25
2016-10-25T11:59:24.351Z,25
2016-10-25T12:00:37.907Z,25
2016-10-25T12:01:51.002Z,20
2016-10-25T12:03:04.014Z,20
2016-10-25T12:04:17.555Z,20
2016-10-25T12:05:30.559Z,20
2016-10-25T12:06:43.708Z,20
2016-10-25T12:07:57.045Z,25
2016-10-25T12:09:10.519Z,25
2016-10-25T12:10:24.160Z,25
2016-10-25T12:11:37.491Z,25
2016-10-25T12:12:51.115Z,25
2016-10-25T12:14:04.710Z,20
2016-10-25T12:15:17.740Z,20
2016-10-25T12:16:30.765Z,20
2016-10-25T12:17:44.324Z,20
2016-10-25T12:18:57.443Z,20
2016-10-25T12:20:11.046Z,20
2016-10-25T12:21:24.586Z,25
2016-10-25T12:22:38.199Z,25
2016-10-25T12:23:51.287Z,25
2016-10-25T12:25:04.345Z,25
2016-10-25T12:26:17.650Z,25
2016-10-25T12:27:30.669Z,25
2016-10-25T12:28:44.169Z,25
2016-10-25T12:29:57.727Z,25
2016-10-25T12:31:11.243Z,30
2016-10-25T12:32:24.299Z,30
2016-10-25T12:33:37.833Z,30
2016-10-25T12:34:50.884Z,30
2016-10-25T12:36:04.510Z,30
2016-10-25T12:37:18.137Z,30
2016-10-25T12:38:31.713Z,30
2016-10-25T12:39:44.756Z,35
2016-10-25T12:40:58.300Z,35
2016-10-25T12:42:11.351Z,30
2016-10-25T12:43:24.336Z,30
2016-10-25T12:44:37.895Z,30
2016-10-25T12:45:51.467Z,30
2016-10-25T12:47:05.020Z,30
2016-10-25T12:48:18.046Z,25
2016-10-25T12:49:31.083Z,25
2016-10-25T12:50:44.119Z,30
2016-10-25T12:51:57.730Z,30
2016-10-25T12:53:10.990Z,30
2016-10-25T12:54:24.062Z,30
2016-10-25T12:55:37.641Z,30
2016-10-25T12:56:51.275Z,30
2016-10-25T12:58:04.842Z,30
2016-10-25T12:59:18.421Z,30
2016-10-25T13:00:32.004Z,30
2016-10-25T13:01:45.637Z,35
2016-10-25T13:02:59.228Z,35
2016-10-25T13:04:12.811Z,40
2016-10-25T13:05:26.395Z,40
2016-10-25T13:06:39.436Z,45
2016-10-25T13:07:53.059Z,45
2016-10-25T13:09:06.398Z,45
2016-10-25T13:10:20.014Z,45
2016-10-25T13:11:33.853Z,50
2016-10-25T13:12:47.158Z,45
2016-10-25T13:14:00.486Z,45
2016-10-25T13:15:14.115Z,45
2016-10-25T13:16:27.699Z,45
2016-10-25T13:17:41.244Z,40
2016-10-25T13:18:54.796Z,40
2016-10-25T13:20:08.415Z,35
2016-10-25T13:21:22.085Z,35
2016-10-25T13:22:35.624Z,35
2016-10-25T13:23:49.222Z,35
2016-10-25T13:25:03.307Z,35
2016-10-25T13:26:16.930Z,35
2016-10-25T13:27:30.497Z,35
2016-10-25T13:28:44.062Z,35
2016-10-25T13:29:57.148Z,35
2016-10-25T13:31:09.587Z,30
2016-10-25T13:32:23.283Z,30
2016-10-25T13:33:36.297Z,25
2016-10-25T13:34:49.363Z,25
2016-10-25T13:36:03.354Z,25
2016-10-25T13:37:16.988Z,30
2016-10-25T13:38:30.527Z,30
2016-10-25T13:39:43.599Z,25
2016-10-25T13:40:57.163Z,25
2016-10-25T13:42:10.270Z,25
2016-10-25T13:43:24.072Z,25
2016-10-25T13:44:37.101Z,25
2016-10-25T13:45:50.127Z,25
2016-10-25T13:47:03.166Z,30
2016-10-25T13:48:16.742Z,30
2016-10-25T13:49:30.358Z,35
2016-10-25T13:50:43.149Z,40
2016-10-25T13:51:57.198Z,50
2016-10-25T13:53:10.825Z,50
2016-10-25T13:54:24.432Z,55
2016-10-25T13:55:37.449Z,65
2016-10-25T13:56:49.985Z,65
2016-10-25T13:58:02.797Z,60
2016-10-25T13:59:16.328Z,60
2016-10-25T14:00:30.289Z,60
2016-10-25T14:01:43.877Z,60
2016-10-25T14:02:57.477Z,65
2016-10-25T14:04:10.597Z,75
2016-10-25T14:05:23.873Z,85
2016-10-25T14:06:37.444Z,105
2016-10-25T14:07:51.040Z,95
2016-10-25T14:09:04.128Z,95
2016-10-25T14:10:17.143Z,100
2016-10-25T14:11:30.328Z,105
2016-10-25T14:12:43.867Z,95
2016-10-25T14:13:57.438Z,90
2016-10-25T14:15:11.092Z,70
2016-10-25T14:16:24.772Z,60
2016-10-25T14:17:37.968Z,55
2016-10-25T14:18:50.972Z,50
2016-10-25T14:20:02.953Z,50
2016-10-25T14:21:16.202Z,50
2016-10-25T14:22:29.410Z,50
2016-10-25T14:23:42.527Z,50
2016-10-25T14:24:56.113Z,50
2016-10-25T14:26:09.079Z,50
2016-10-25T14:27:21.835Z,50
2016-10-25T14:28:34.913Z,45
2016-10-25T14:29:48.493Z,35
2016-10-25T14:31:02.033Z,25
2016-10-25T14:32:15.056Z,25
2016-10-25T14:33:28.659Z,20
2016-10-25T14:34:41.759Z,20
2016-10-25T14:35:55.339Z,20
2016-10-25T14:37:08.863Z,20
2016-10-25T14:38:21.882Z,25
2016-10-25T14:39:34.982Z,25
2016-10-25T14:40:48.502Z,30
2016-10-25T14:42:01.609Z,30
2016-10-25T14:43:14.599Z,30
2016-10-25T14:44:28.229Z,30
2016-10-25T14:45:41.867Z,30
2016-10-25T14:46:55.406Z,40
2016-10-25T14:48:09.089Z,40
2016-10-25T14:49:22.656Z,40
2016-10-25T14:50:36.370Z,35
2016-10-25T14:51:50.023Z,35
2016-10-25T14:53:03.044Z,30
2016-10-25T14:54:16.669Z,30
2016-10-25T14:55:30.252Z,35
2016-10-25T14:56:43.835Z,30
2016-10-25T14:57:57.268Z,30
2016-10-25T14:59:10.382Z,30
2016-10-25T15:00:23.968Z,30
2016-10-25T15:01:37.545Z,30
2016-10-25T15:02:51.019Z,35
2016-10-25T15:04:04.616Z,30
2016-10-25T15:05:18.235Z,30
2016-10-25T15:06:31.826Z,30
2016-10-25T15:07:45.400Z,25
2016-10-25T15:08:57.902Z,25
2016-10-25T15:10:10.910Z,25
2016-10-25T15:11:24.454Z,25
2016-10-25T15:12:37.986Z,25
2016-10-25T15:13:51.579Z,25
2016-10-25T15:15:05.202Z,25
2016-10-25T15:16:18.727Z,25
2016-10-25T15:17:32.283Z,25
2016-10-25T15:18:45.369Z,25
2016-10-25T15:19:58.905Z,25
2016-10-25T15:21:11.425Z,30
2016-10-25T15:22:24.498Z,30
2016-10-25T15:23:36.961Z,30
2016-10-25T15:24:50.921Z,30
2016-10-25T15:26:04.169Z,35
2016-10-25T15:27:17.259Z,35
2016-10-25T15:28:30.799Z,35
2016-10-25T15:29:43.043Z,35
2016-10-25T15:30:57.019Z,35
2016-10-25T15:32:10.625Z,30
2016-10-25T15:33:24.093Z,30
2016-10-25T15:34:37.749Z,25
2016-10-25T15:35:51.297Z,25
2016-10-25T15:37:04.371Z,25
2016-10-25T15:38:17.914Z,25
2016-10-25T15:39:31.534Z,20
2016-10-25T15:40:44.603Z,20
2016-10-25T15:41:58.202Z,20
2016-10-25T15:43:11.709Z,25
2016-10-25T15:44:25.290Z,25
2016-10-25T15:45:38.319Z,35
2016-10-25T15:46:51.830Z,35
2016-10-25T15:48:04.868Z,35
2016-10-25T15:49:18.394Z,35
2016-10-25T15:50:31.952Z,35
2016-10-25T15:51:45.585Z,35
2016-10-25T15:52:59.152Z,35
2016-10-25T15:54:12.741Z,40
2016-10-25T15:55:26.333Z,45
2016-10-25T15:56:39.024Z,50
2016-10-25T15:57:51.532Z,50
2016-10-25T15:59:05.068Z,50
2016-10-25T16:00:18.130Z,45
2016-10-25T16:01:31.138Z,45
2016-10-25T16:02:44.749Z,40
2016-10-25T16:03:58.348Z,40
2016-10-25T16:05:11.368Z,40
2016-10-25T16:06:24.976Z,40
2016-10-25T16:07:38.103Z,40
2016-10-25T16:08:51.658Z,45
2016-10-25T16:10:04.662Z,45
2016-10-25T16:11:17.655Z,45
2016-10-25T16:12:30.667Z,45
2016-10-25T16:13:43.731Z,40
2016-10-25T16:14:57.372Z,40
2016-10-25T16:16:10.986Z,40
2016-10-25T16:17:24.539Z,45
2016-10-25T16:18:37.563Z,45
2016-10-25T16:19:51.060Z,50
2016-10-25T16:21:04.628Z,50
2016-10-25T16:22:17.154Z,50
2016-10-25T16:23:30.801Z,55
2016-10-25T16:24:44.384Z,60
2016-10-25T16:25:57.460Z,65
2016-10-25T16:27:11.070Z,65
2016-10-25T16:28:24.316Z,65
2016-10-25T16:29:37.324Z,55
2016-10-25T16:30:50.356Z,50
2016-10-25T16:32:03.475Z,45
2016-10-25T16:33:16.578Z,40
2016-10-25T16:34:29.873Z,40
2016-10-25T16:35:43.522Z,35
2016-10-25T16:36:57.294Z,30
2016-10-25T16:38:10.260Z,35
2016-10-25T16:39:24.281Z,35
2016-10-25T16:40:37.873Z,35
2016-10-25T16:41:50.393Z,40
2016-10-25T16:43:03.967Z,40
2016-10-25T16:44:17.010Z,45
2016-10-25T16:45:30.175Z,50
2016-10-25T16:46:43.568Z,50
2016-10-25T16:47:56.692Z,50
2016-10-25T16:49:10.297Z,50
2016-10-25T16:50:24.312Z,50
2016-10-25T16:51:36.327Z,45
2016-10-25T16:52:49.879Z,40
2016-10-25T16:54:02.979Z,35
2016-10-25T16:55:16.565Z,30
2016-10-25T16:56:30.316Z,30
2016-10-25T16:57:43.926Z,30
2016-10-25T16:58:57.539Z,30
2016-10-25T17:00:11.150Z,30
2016-10-25T17:01:24.748Z,25
2016-10-25T17:02:37.928Z,25
2016-10-25T17:03:51.450Z,25
2016-10-25T17:05:04.559Z,25
2016-10-25T17:06:18.187Z,25
2016-10-25T17:07:31.756Z,25
2016-10-25T17:08:44.833Z,25
2016-10-25T17:09:58.415Z,25
2016-10-25T17:11:11.768Z,20
2016-10-25T17:12:25.318Z,20
2016-10-25T17:13:38.396Z,20
2016-10-25T17:14:51.402Z,25
2016-10-25T17:16:04.436Z,25
2016-10-25T17:17:17.456Z,25
2016-10-25T17:18:30.467Z,20
2016-10-25T17:19:43.005Z,20
2016-10-25T17:20:56.551Z,15
2016-10-25T17:22:10.097Z,15
2016-10-25T17:23:24.048Z,20
2016-10-25T17:24:37.677Z,20
2016-10-25T17:25:51.289Z,20
2016-10-25T17:27:04.887Z,20
2016-10-25T17:28:17.435Z,20
2016-10-25T17:29:30.938Z,20
2016-10-25T17:30:44.240Z,15
2016-10-25T17:31:57.813Z,15
2016-10-25T17:33:11.343Z,15
2016-10-25T17:34:24.107Z,15
2016-10-25T17:35:37.690Z,15
2016-10-25T17:36:51.105Z,15
2016-10-25T17:38:04.742Z,15
2016-10-25T17:39:18.274Z,15
2016-10-25T17:40:31.900Z,15
2016-10-25T17:41:44.999Z,15
2016-10-25T17:42:58.560Z,15
2016-10-25T17:44:11.574Z,10
2016-10-25T17:45:24.562Z,15
2016-10-25T17:46:37.607Z,15
2016-10-25T17:47:50.072Z,15